createdAt,value
2023-04-06T00:02:02.076Z,3.05
2023-04-06T00:07:52.449Z,3.50
2023-04-06T00:23:50.487Z,3.67
2023-04-06T00:29:23.975Z,2.97
2023-04-06T00:33:46.233Z,2.78
2023-04-06T00:38:08.195Z,2.85
2023-04-06T00:42:30.492Z,3.15
2023-04-06T00:46:53.289Z,2.90
2023-04-06T00:51:15.056Z,2.65
2023-04-06T00:55:37.188Z,3.30
2023-04-06T00:59:59.900Z,3.08
2023-04-06T01:04:23.921Z,2.88
2023-04-06T01:08:49.979Z,3.85
2023-04-06T01:13:16.009Z,3.08
2023-04-06T01:18:06.100Z,3.33
2023-04-06T01:22:28.133Z,3.38
2023-04-06T01:26:57.681Z,3.47
2023-04-06T01:31:24.863Z,3.67
2023-04-06T01:35:48.214Z,3.17
2023-04-06T01:40:14.914Z,3.88
2023-04-06T01:44:42.000Z,4.45
2023-04-06T01:49:09.132Z,3.00
2023-04-06T01:53:34.396Z,3.10
2023-04-06T01:58:01.538Z,3.38
2023-04-06T02:02:31.049Z,3.45
2023-04-06T02:07:00.156Z,3.20
2023-04-06T02:11:25.681Z,3.60
2023-04-06T02:15:51.011Z,3.17
2023-04-06T02:20:13.236Z,3.38
2023-04-06T02:24:35.573Z,3.47
2023-04-06T02:28:57.400Z,3.50
2023-04-06T02:33:19.477Z,3.17
2023-04-06T02:37:43.181Z,3.30
2023-04-06T02:42:05.552Z,3.85
2023-04-06T02:46:27.830Z,3.70
2023-04-06T02:50:50.044Z,4.28
2023-04-06T02:55:12.155Z,3.80
2023-04-06T02:59:34.601Z,4.15
2023-04-06T03:04:12.141Z,3.55
2023-04-06T03:08:35.452Z,4.68
2023-04-06T03:12:57.697Z,3.55
2023-04-06T03:17:35.691Z,3.72
2023-04-06T03:22:01.880Z,3.70
2023-04-06T03:26:24.254Z,3.33
2023-04-06T03:30:48.007Z,3.50
2023-04-06T03:35:13.846Z,3.50
2023-04-06T03:39:36.030Z,3.95
2023-04-06T03:43:58.703Z,3.75
2023-04-06T03:48:20.805Z,3.45
2023-04-06T03:52:43.546Z,3.50
2023-04-06T03:57:06.204Z,3.35
2023-04-06T04:01:28.464Z,3.33
2023-04-06T04:05:52.147Z,2.78
2023-04-06T04:10:14.981Z,3.80
2023-04-06T04:14:37.042Z,3.25
2023-04-06T04:19:00.034Z,4.53
2023-04-06T04:23:22.301Z,3.28
2023-04-06T04:27:44.685Z,3.83
2023-04-06T04:32:07.787Z,3.70
2023-04-06T04:36:30.829Z,3.25
2023-04-06T04:40:56.373Z,4.03
2023-04-06T04:45:18.477Z,3.50
2023-04-06T04:49:40.740Z,4.68
2023-04-06T04:54:02.977Z,4.35
2023-04-06T04:58:27.041Z,4.25
2023-04-06T05:02:52.656Z,3.85
2023-04-06T05:07:19.967Z,4.15
2023-04-06T05:11:42.199Z,4.35
2023-04-06T05:16:04.260Z,4.25
2023-04-06T05:20:29.393Z,4.03
2023-04-06T05:24:51.660Z,3.60
2023-04-06T05:29:13.887Z,4.03
2023-04-06T05:33:36.773Z,3.33
2023-04-06T05:38:03.627Z,3.85
2023-04-06T05:42:25.885Z,3.92
2023-04-06T05:46:52.100Z,4.40
2023-04-06T05:51:14.422Z,5.00
2023-04-06T05:55:44.779Z,4.22
2023-04-06T06:00:13.136Z,4.65
2023-04-06T06:04:36.185Z,4.07
2023-04-06T06:09:01.993Z,4.00
2023-04-06T06:13:27.748Z,3.85
2023-04-06T06:17:51.789Z,3.95
2023-04-06T06:22:13.890Z,5.15
2023-04-06T06:26:40.982Z,4.30
2023-04-06T06:31:04.458Z,4.78
2023-04-06T06:35:26.479Z,5.18
2023-04-06T06:39:49.127Z,8.70
2023-04-06T06:44:12.070Z,6.38
2023-04-06T06:48:34.442Z,5.50
2023-04-06T06:53:07.342Z,7.85
2023-04-06T06:57:29.974Z,8.30
2023-04-06T07:01:53.136Z,6.88
2023-04-06T07:06:15.528Z,6.15
2023-04-06T07:10:37.532Z,6.75
2023-04-06T07:14:59.719Z,6.68
2023-04-06T07:19:21.661Z,6.78
2023-04-06T07:23:45.927Z,5.82
2023-04-06T07:28:08.048Z,5.50
2023-04-06T07:32:30.195Z,4.93
2023-04-06T07:36:54.897Z,5.32
2023-04-06T07:41:17.221Z,6.20
2023-04-06T07:45:39.575Z,4.70
2023-04-06T07:50:01.965Z,5.22
2023-04-06T07:54:25.132Z,5.00
2023-04-06T07:58:47.240Z,4.68
2023-04-06T08:03:09.568Z,4.32
2023-04-06T08:07:32.012Z,3.10
2023-04-06T08:11:53.940Z,3.55
2023-04-06T08:16:16.553Z,3.38
2023-04-06T08:20:38.717Z,3.30
2023-04-06T08:25:00.529Z,3.00
2023-04-06T08:29:22.833Z,4.05
2023-04-06T08:33:44.851Z,3.58
2023-04-06T08:38:07.326Z,3.63
2023-04-06T08:42:32.892Z,3.53
2023-04-06T08:46:55.620Z,3.50
2023-04-06T08:51:19.227Z,3.50
2023-04-06T08:55:44.093Z,3.47
2023-04-06T09:00:10.670Z,3.67
2023-04-06T09:04:37.695Z,3.22
2023-04-06T09:09:00.125Z,3.60
2023-04-06T09:13:22.551Z,4.00
2023-04-06T09:17:45.764Z,3.20
2023-04-06T09:22:11.027Z,3.60
2023-04-06T09:26:34.985Z,3.20
2023-04-06T09:30:57.094Z,3.42
2023-04-06T09:35:23.786Z,3.25
2023-04-06T09:39:47.808Z,3.53
2023-04-06T09:44:13.115Z,3.05
2023-04-06T09:48:36.767Z,3.85
2023-04-06T09:53:01.427Z,3.80
2023-04-06T09:57:54.113Z,4.15
2023-04-06T10:02:53.201Z,3.72
2023-04-06T10:07:16.838Z,3.83
2023-04-06T10:11:39.254Z,3.70
2023-04-06T10:16:04.714Z,3.97
2023-04-06T10:21:15.902Z,3.53
2023-04-06T10:25:38.970Z,3.65
2023-04-06T10:30:07.027Z,3.22
2023-04-06T10:34:39.283Z,3.42
2023-04-06T10:39:10.076Z,3.03
2023-04-06T10:43:39.543Z,2.92
2023-04-06T10:48:01.938Z,2.90
2023-04-06T10:52:24.077Z,2.80
2023-04-06T10:56:46.241Z,2.88
2023-04-06T11:01:08.477Z,3.00
2023-04-06T11:05:30.172Z,3.10
2023-04-06T11:10:11.280Z,3.35
2023-04-06T11:14:34.829Z,2.92
2023-04-06T11:19:07.117Z,2.75
2023-04-06T11:23:29.389Z,2.75
2023-04-06T11:27:52.530Z,2.65
2023-04-06T11:32:23.183Z,3.38
2023-04-06T11:36:47.970Z,2.90
2023-04-06T11:41:10.128Z,3.58
2023-04-06T11:45:44.424Z,3.05
2023-04-06T11:50:15.857Z,3.42
2023-04-06T11:54:39.400Z,3.45
2023-04-06T11:59:01.949Z,3.38
2023-04-06T12:03:24.063Z,3.83
2023-04-06T12:07:46.258Z,3.22
2023-04-06T12:12:08.393Z,3.22
2023-04-06T12:16:30.881Z,3.63
2023-04-06T12:20:53.422Z,3.17
2023-04-06T12:25:15.977Z,3.10
2023-04-06T12:29:38.935Z,3.63
2023-04-06T12:34:02.301Z,3.50
2023-04-06T12:38:24.378Z,3.50
2023-04-06T12:42:47.344Z,3.33
2023-04-06T12:47:09.563Z,3.42
2023-04-06T12:51:35.118Z,3.45
2023-04-06T12:55:58.197Z,4.10
2023-04-06T13:00:21.311Z,3.85
2023-04-06T13:04:44.045Z,3.80
2023-04-06T13:09:06.789Z,3.40
2023-04-06T13:13:32.834Z,4.18
2023-04-06T13:17:56.614Z,4.05
2023-04-06T13:22:18.805Z,3.72
2023-04-06T13:26:41.086Z,3.70
2023-04-06T13:31:03.866Z,3.90
2023-04-06T13:35:26.279Z,3.65
2023-04-06T13:39:48.775Z,4.40
2023-04-06T13:44:10.816Z,3.67
2023-04-06T13:48:32.903Z,4.53
2023-04-06T13:52:55.696Z,4.40
2023-04-06T13:57:18.202Z,3.80
2023-04-06T14:01:40.863Z,4.65
2023-04-06T14:06:20.758Z,4.55
2023-04-06T14:10:52.693Z,4.68
2023-04-06T14:15:14.971Z,4.25
2023-04-06T14:19:37.295Z,4.60
2023-04-06T14:23:59.869Z,4.03
2023-04-06T14:28:23.332Z,5.30
2023-04-06T14:32:45.328Z,4.95
2023-04-06T14:37:07.521Z,4.90
2023-04-06T14:41:29.680Z,4.72
2023-04-06T14:45:51.811Z,4.55
2023-04-06T14:50:13.752Z,4.85
2023-04-06T14:54:35.573Z,5.00
2023-04-06T14:59:00.516Z,5.22
2023-04-06T15:03:22.799Z,5.28
2023-04-06T15:07:44.960Z,4.97
2023-04-06T15:12:07.319Z,4.32
2023-04-06T15:16:33.563Z,5.13
2023-04-06T15:20:55.932Z,4.55
2023-04-06T15:25:18.416Z,5.00
2023-04-06T15:29:40.633Z,5.22
2023-04-06T15:34:02.890Z,4.70
2023-04-06T15:38:24.746Z,4.63
2023-04-06T15:42:47.248Z,5.13
2023-04-06T15:47:09.323Z,5.28
2023-04-06T15:51:31.672Z,4.82
2023-04-06T15:56:03.988Z,5.00
2023-04-06T16:00:26.720Z,5.05
2023-04-06T16:04:48.889Z,5.25
2023-04-06T16:09:11.172Z,5.03
2023-04-06T16:13:33.820Z,5.95
2023-04-06T16:17:55.639Z,5.05
2023-04-06T16:22:17.909Z,5.45
2023-04-06T16:26:40.254Z,6.07
2023-04-06T16:31:02.672Z,5.10
2023-04-06T16:35:26.356Z,5.18
2023-04-06T16:39:48.516Z,5.03
2023-04-06T16:44:11.514Z,6.25
2023-04-06T16:48:33.674Z,5.32
2023-04-06T16:52:55.497Z,5.90
2023-04-06T16:57:18.377Z,5.90
2023-04-06T17:01:40.880Z,6.35
2023-04-06T17:06:04.479Z,5.38
2023-04-06T17:10:33.427Z,6.47
2023-04-06T17:14:59.169Z,5.80
2023-04-06T17:19:21.424Z,5.60
2023-04-06T17:23:44.498Z,5.80
2023-04-06T17:28:06.535Z,5.88
2023-04-06T17:32:30.019Z,5.88
2023-04-06T17:36:51.954Z,6.38
2023-04-06T17:41:14.459Z,7.15
2023-04-06T17:45:36.719Z,7.88
2023-04-06T17:50:02.821Z,9.57
2023-04-06T17:54:24.716Z,9.10
2023-04-06T17:58:46.751Z,9.07
2023-04-06T18:03:08.704Z,7.97
2023-04-06T18:07:31.156Z,8.43
2023-04-06T18:11:52.931Z,8.20
2023-04-06T18:16:17.599Z,9.10
2023-04-06T18:20:41.608Z,9.68
2023-04-06T18:25:07.676Z,7.88
2023-04-06T18:29:29.472Z,7.82
2023-04-06T18:33:53.765Z,8.38
2023-04-06T18:38:16.525Z,7.35
2023-04-06T18:42:39.001Z,7.47
2023-04-06T18:47:01.365Z,7.35
2023-04-06T18:51:23.705Z,8.02
2023-04-06T18:55:46.028Z,7.50
2023-04-06T19:00:09.068Z,11.32
2023-04-06T19:04:31.451Z,8.20
2023-04-06T19:08:54.171Z,12.35
2023-04-06T19:13:16.428Z,13.88
2023-04-06T19:17:38.731Z,11.43
2023-04-06T19:22:01.802Z,11.10
2023-04-06T19:26:27.472Z,10.25
2023-04-06T19:30:49.790Z,9.77
2023-04-06T19:35:11.881Z,8.77
2023-04-06T19:39:36.830Z,7.82
2023-04-06T19:43:59.106Z,8.05
2023-04-06T19:48:21.257Z,8.15
2023-04-06T19:52:43.233Z,7.88
2023-04-06T19:57:05.609Z,7.35
2023-04-06T20:01:27.835Z,7.65
2023-04-06T20:05:50.068Z,7.35
2023-04-06T20:10:12.283Z,6.78
2023-04-06T20:14:34.773Z,7.72
2023-04-06T20:18:57.045Z,7.20
2023-04-06T20:23:18.968Z,8.52
2023-04-06T20:27:40.907Z,7.85
2023-04-06T20:32:02.995Z,8.65
2023-04-06T20:36:28.141Z,10.85
2023-04-06T20:40:50.294Z,8.85
2023-04-06T20:49:48.740Z,7.43
2023-04-06T20:54:10.854Z,8.25
2023-04-06T20:58:32.977Z,7.93
2023-04-06T21:02:55.339Z,7.75
2023-04-06T21:07:17.644Z,7.60
2023-04-06T21:11:39.995Z,7.57
2023-04-06T21:16:02.395Z,8.02
2023-04-06T21:20:24.514Z,13.80
2023-04-06T21:24:46.355Z,12.73
2023-04-06T21:29:08.537Z,12.18
2023-04-06T21:33:31.217Z,12.25
2023-04-06T21:37:53.194Z,11.65
2023-04-06T21:42:15.675Z,12.73
2023-04-06T21:46:37.545Z,9.73
2023-04-06T21:50:59.707Z,12.05
2023-04-06T21:55:22.145Z,10.95
2023-04-06T21:59:44.327Z,10.63
2023-04-06T22:04:06.357Z,12.32
2023-04-06T22:08:33.876Z,11.27
2023-04-06T22:12:56.726Z,11.52
2023-04-06T22:17:18.750Z,11.82
2023-04-06T22:21:41.027Z,12.27
2023-04-06T22:26:02.932Z,12.98
2023-04-06T22:30:25.459Z,12.57
2023-04-06T22:34:47.668Z,11.77
2023-04-06T22:39:09.508Z,13.63
2023-04-06T22:43:31.753Z,13.40
2023-04-06T22:47:53.923Z,13.55
2023-04-06T22:52:15.785Z,13.63
2023-04-06T22:56:37.735Z,13.82
2023-04-06T23:01:00.193Z,14.23
2023-04-06T23:05:22.593Z,12.82
2023-04-06T23:09:45.153Z,12.23
2023-04-06T23:14:07.149Z,12.93
2023-04-06T23:18:29.311Z,12.90
2023-04-06T23:22:51.849Z,13.38
2023-04-06T23:27:13.578Z,14.73
2023-04-06T23:31:35.675Z,12.07
2023-04-06T23:35:57.894Z,10.82
2023-04-06T23:40:20.812Z,14.18
2023-04-06T23:44:42.710Z,14.38
2023-04-06T23:49:04.810Z,11.43
2023-04-06T23:53:26.930Z,11.88
2023-04-06T23:57:49.117Z,10.77
